Time,TemperatureF,DewpointF,PressureIn,WindDirection,WindDirectionDegrees,WindSpeedMPH,WindSpeedGustMPH,Humidity,HourlyPrecipIn,Conditions,Clouds,dailyrainin,SoftwareType,DateUTC
2013-09-19 00:04:00,66.1,63.7,30.18,SSW,205,0.0,0.0,92,0.00,,,0.00,WUHU216DAVISVP2,2013-09-19 04:04:00,
2013-09-19 00:09:00,66.0,63.6,30.18,SSW,205,0.0,0.0,92,0.00,,,0.00,WUHU216DAVISVP2,2013-09-19 04:09:00,
2013-09-19 00:14:00,65.9,63.5,30.18,SSW,205,0.0,0.0,92,0.00,,,0.00,WUHU216DAVISVP2,2013-09-19 04:14:00,
2013-09-19 00:20:00,65.8,63.4,30.18,SSW,205,0.0,0.0,92,0.00,,,0.00,WUHU216DAVISVP2,2013-09-19 04:20:00,
2013-09-19 00:25:00,65.7,63.3,30.18,SSW,205,0.0,0.0,92,0.00,,,0.00,WUHU216DAVISVP2,2013-09-19 04:25:00,
2013-09-19 00:30:00,65.6,63.2,30.18,SSW,205,0.0,0.0,92,0.00,,,0.00,WUHU216DAVISVP2,2013-09-19 04:30:00,
2013-09-19 00:35:00,65.5,63.1,30.18,SSW,205,0.0,0.0,92,0.00,,,0.00,WUHU216DAVISVP2,2013-09-19 04:35:00,
2013-09-19 00:40:00,65.4,63.3,30.18,SSW,205,0.0,0.0,93,0.00,,,0.00,WUHU216DAVISVP2,2013-09-19 04:40:00,
2013-09-19 00:46:00,65.2,63.1,30.18,SSW,205,0.0,0.0,93,0.00,,,0.00,WUHU216DAVISVP2,2013-09-19 04:46:00,
2013-09-19 00:51:00,65.1,63.0,30.18,SSW,205,0.0,0.0,93,0.00,,,0.00,WUHU216DAVISVP2,2013-09-19 04:51:00,
2013-09-19 00:56:00,65.0,62.9,30.18,SSW,205,0.0,0.0,93,0.00,,,0.00,WUHU216DAVISVP2,2013-09-19 04:56:00,
2013-09-19 01:01:00,64.9,62.8,30.18,SSW,205,0.0,0.0,93,0.00,,,0.00,WUHU216DAVISVP2,2013-09-19 05:01:00,
2013-09-19 01:06:00,64.8,62.7,30.18,SSW,205,0.0,0.0,93,0.00,,,0.00,WUHU216DAVISVP2,2013-09-19 05:06:00,
2013-09-19 01:11:00,64.8,62.7,30.18,SSW,205,0.0,0.0,93,0.00,,,0.00,WUHU216DAVISVP2,2013-09-19 05:11:00,
2013-09-19 01:16:00,64.7,62.6,30.18,SSW,205,0.0,0.0,93,0.00,,,0.00,WUHU216DAVISVP2,2013-09-19 05:16:00,
2013-09-19 01:22:00,64.6,62.5,30.18,SSW,205,0.0,0.0,93,0.00,,,0.00,WUHU216DAVISVP2,2013-09-19 05:22:00,
2013-09-19 01:27:00,64.5,62.4,30.18,SSW,205,0.0,0.0,93,0.00,,,0.00,WUHU216DAVISVP2,2013-09-19 05:27:00,
2013-09-19 01:32:00,64.4,62.3,30.18,SSW,205,0.0,0.0,93,0.00,,,0.00,WUHU216DAVISVP2,2013-09-19 05:32:00,
2013-09-19 01:37:00,64.3,62.2,30.18,SSW,205,0.0,0.0,93,0.00,,,0.00,WUHU216DAVISVP2,2013-09-19 05:37:00,
2013-09-19 01:42:00,64.2,62.1,30.18,SSW,205,0.0,0.0,93,0.00,,,0.00,WUHU216DAVISVP2,2013-09-19 05:42:00,
2013-09-19 01:47:00,64.1,62.0,30.18,SSW,205,0.0,0.0,93,0.00,,,0.00,WUHU216DAVISVP2,2013-09-19 05:47:00,
2013-09-19 01:52:00,64.0,62.2,30.18,SSW,205,0.0,0.0,94,0.00,,,0.00,WUHU216DAVISVP2,2013-09-19 05:52:00,
2013-09-19 01:57:00,64.0,62.2,30.18,SSW,205,0.0,0.0,94,0.00,,,0.00,WUHU216DAVISVP2,2013-09-19 05:57:00,
2013-09-19 02:03:00,64.0,62.2,30.18,SSW,205,0.0,0.0,94,0.00,,,0.00,WUHU216DAVISVP2,2013-09-19 06:03:00,
2013-09-19 02:08:00,63.9,62.1,30.18,SSW,205,0.0,0.0,94,0.00,,,0.00,WUHU216DAVISVP2,2013-09-19 06:08:00,
2013-09-19 02:13:00,63.9,62.1,30.18,SSW,205,0.0,0.0,94,0.00,,,0.00,WUHU216DAVISVP2,2013-09-19 06:13:00,
2013-09-19 02:18:00,63.8,62.0,30.18,SSW,205,0.0,0.0,94,0.00,,,0.00,WUHU216DAVISVP2,2013-09-19 06:18:00,
2013-09-19 02:23:00,63.8,62.0,30.18,SSW,205,0.0,0.0,94,0.00,,,0.00,WUHU216DAVISVP2,2013-09-19 06:23:00,
2013-09-19 02:28:00,63.7,61.9,30.18,SSW,205,0.0,0.0,94,0.00,,,0.00,WUHU216DAVISVP2,2013-09-19 06:28:00,
2013-09-19 02:33:00,63.6,61.8,30.18,SSW,205,0.0,0.0,94,0.00,,,0.00,WUHU216DAVISVP2,2013-09-19 06:33:00,
2013-09-19 02:39:00,63.6,61.8,30.18,SSW,205,0.0,0.0,94,0.00,,,0.00,WUHU216DAVISVP2,2013-09-19 06:39:00,
2013-09-19 02:44:00,63.5,61.7,30.18,SSW,205,0.0,0.0,94,0.00,,,0.00,WUHU216DAVISVP2,2013-09-19 06:44:00,
2013-09-19 02:49:00,63.5,61.7,30.18,SSW,205,0.0,0.0,94,0.00,,,0.00,WUHU216DAVISVP2,2013-09-19 06:49:00,
2013-09-19 02:54:00,63.4,61.9,30.18,SSW,205,0.0,0.0,95,0.00,,,0.00,WUHU216DAVISVP2,2013-09-19 06:54:00,
2013-09-19 02:59:00,63.4,61.9,30.18,SSW,205,0.0,0.0,95,0.00,,,0.00,WUHU216DAVISVP2,2013-09-19 06:59:00,
2013-09-19 03:04:00,63.3,61.5,30.18,SSW,205,0.0,0.0,94,0.00,,,0.00,WUHU216DAVISVP2,2013-09-19 07:04:00,
2013-09-19 03:09:00,63.2,61.7,30.18,SSW,205,0.0,0.0,95,0.00,,,0.00,WUHU216DAVISVP2,2013-09-19 07:09:00,
2013-09-19 03:14:00,63.2,61.7,30.18,SSW,205,0.0,0.0,95,0.00,,,0.00,WUHU216DAVISVP2,2013-09-19 07:14:00,
2013-09-19 03:20:00,63.2,61.7,30.18,SSW,205,0.0,0.0,95,0.00,,,0.00,WUHU216DAVISVP2,2013-09-19 07:20:00,
2013-09-19 03:25:00,63.1,61.6,30.18,SSW,205,0.0,0.0,95,0.00,,,0.00,WUHU216DAVISVP2,2013-09-19 07:25:00,
2013-09-19 03:30:00,63.1,61.6,30.18,SSW,205,0.0,0.0,95,0.00,,,0.00,WUHU216DAVISVP2,2013-09-19 07:30:00,
2013-09-19 03:35:00,63.2,61.7,30.18,SSW,205,0.0,0.0,95,0.00,,,0.00,WUHU216DAVISVP2,2013-09-19 07:35:00,
2013-09-19 03:40:00,63.3,61.8,30.18,SSW,205,0.0,0.0,95,0.00,,,0.00,WUHU216DAVISVP2,2013-09-19 07:40:00,
2013-09-19 03:45:00,63.3,61.8,30.18,SSW,205,0.0,0.0,95,0.00,,,0.00,WUHU216DAVISVP2,2013-09-19 07:45:00,
2013-09-19 03:50:00,63.3,61.8,30.18,SSW,205,0.0,0.0,95,0.00,,,0.00,WUHU216DAVISVP2,2013-09-19 07:50:00,
2013-09-19 03:55:00,63.3,61.8,30.18,SSW,205,0.0,0.0,95,0.00,,,0.00,WUHU216DAVISVP2,2013-09-19 07:55:00,
2013-09-19 04:01:00,63.3,61.8,30.17,SSW,205,0.0,0.0,95,0.00,,,0.00,WUHU216DAVISVP2,2013-09-19 08:01:00,
2013-09-19 04:06:00,63.2,61.7,30.18,SSW,205,0.0,0.0,95,0.00,,,0.00,WUHU216DAVISVP2,2013-09-19 08:06:00,
2013-09-19 04:11:00,63.1,61.6,30.18,SSW,205,0.0,0.0,95,0.00,,,0.00,WUHU216DAVISVP2,2013-09-19 08:11:00,
2013-09-19 04:16:00,63.0,61.5,30.17,SSW,205,0.0,0.0,95,0.00,,,0.00,WUHU216DAVISVP2,2013-09-19 08:16:00,
2013-09-19 04:21:00,63.0,61.5,30.17,SSW,205,0.0,0.0,95,0.00,,,0.00,WUHU216DAVISVP2,2013-09-19 08:21:00,
2013-09-19 04:26:00,63.0,61.5,30.17,SSW,205,0.0,0.0,95,0.00,,,0.00,WUHU216DAVISVP2,2013-09-19 08:26:00,
2013-09-19 04:31:00,63.1,61.6,30.17,SSW,205,0.0,0.0,95,0.00,,,0.00,WUHU216DAVISVP2,2013-09-19 08:31:00,
2013-09-19 04:36:00,63.1,61.6,30.17,SSW,205,0.0,0.0,95,0.00,,,0.00,WUHU216DAVISVP2,2013-09-19 08:36:00,
2013-09-19 04:42:00,63.1,61.6,30.17,SSW,205,0.0,0.0,95,0.00,,,0.00,WUHU216DAVISVP2,2013-09-19 08:42:00,
2013-09-19 04:47:00,63.1,61.6,30.17,SSW,205,0.0,0.0,95,0.00,,,0.00,WUHU216DAVISVP2,2013-09-19 08:47:00,
2013-09-19 04:52:00,63.1,61.6,30.17,SSW,205,0.0,0.0,95,0.00,,,0.00,WUHU216DAVISVP2,2013-09-19 08:52:00,
2013-09-19 04:57:00,63.0,61.5,30.17,SSW,205,0.0,0.0,95,0.00,,,0.00,WUHU216DAVISVP2,2013-09-19 08:57:00,
2013-09-19 05:02:00,62.9,61.4,30.18,SSW,205,0.0,0.0,95,0.00,,,0.00,WUHU216DAVISVP2,2013-09-19 09:02:00,
2013-09-19 05:07:00,62.8,61.3,30.18,SSW,205,0.0,0.0,95,0.00,,,0.00,WUHU216DAVISVP2,2013-09-19 09:07:00,
2013-09-19 05:13:00,62.7,61.2,30.18,SSW,205,0.0,0.0,95,0.00,,,0.00,WUHU216DAVISVP2,2013-09-19 09:13:00,
2013-09-19 05:18:00,62.7,61.2,30.17,SSW,205,0.0,0.0,95,0.00,,,0.00,WUHU216DAVISVP2,2013-09-19 09:18:00,
2013-09-19 05:23:00,62.8,61.3,30.18,SSW,205,0.0,0.0,95,0.00,,,0.00,WUHU216DAVISVP2,2013-09-19 09:23:00,
2013-09-19 05:28:00,62.8,61.3,30.17,SSW,205,0.0,0.0,95,0.00,,,0.00,WUHU216DAVISVP2,2013-09-19 09:28:00,
2013-09-19 05:33:00,62.7,61.2,30.18,SSW,205,0.0,0.0,95,0.00,,,0.00,WUHU216DAVISVP2,2013-09-19 09:33:00,
2013-09-19 05:39:00,62.7,61.2,30.18,SSW,205,0.0,0.0,95,0.00,,,0.00,WUHU216DAVISVP2,2013-09-19 09:39:00,
2013-09-19 05:44:00,62.6,61.1,30.18,SSW,205,0.0,0.0,95,0.00,,,0.00,WUHU216DAVISVP2,2013-09-19 09:44:00,
2013-09-19 05:49:00,62.5,61.0,30.18,SSW,205,0.0,0.0,95,0.00,,,0.00,WUHU216DAVISVP2,2013-09-19 09:49:00,
2013-09-19 05:54:00,62.3,60.8,30.18,SSW,205,0.0,0.0,95,0.00,,,0.00,WUHU216DAVISVP2,2013-09-19 09:54:00,
2013-09-19 05:59:00,62.3,60.8,30.18,SSW,205,0.0,0.0,95,0.00,,,0.00,WUHU216DAVISVP2,2013-09-19 09:59:00,
2013-09-19 06:04:00,62.3,61.1,30.18,SSW,205,0.0,0.0,96,0.00,,,0.00,WUHU216DAVISVP2,2013-09-19 10:04:00,
2013-09-19 06:09:00,62.3,61.1,30.18,SSW,205,0.0,0.0,96,0.00,,,0.00,WUHU216DAVISVP2,2013-09-19 10:09:00,
2013-09-19 06:14:00,62.2,60.8,30.18,SSW,205,0.0,0.0,95,0.00,,,0.00,WUHU216DAVISVP2,2013-09-19 10:14:00,
2013-09-19 06:20:00,62.1,60.7,30.19,SSW,205,0.0,0.0,95,0.00,,,0.00,WUHU216DAVISVP2,2013-09-19 10:20:00,
2013-09-19 06:25:00,62.0,60.5,30.19,SSW,205,0.0,0.0,95,0.00,,,0.00,WUHU216DAVISVP2,2013-09-19 10:25:00,
2013-09-19 06:30:00,62.0,60.5,30.19,SSW,205,0.0,0.0,95,0.00,,,0.00,WUHU216DAVISVP2,2013-09-19 10:30:00,
2013-09-19 06:35:00,62.0,60.8,30.19,SSW,205,0.0,0.0,96,0.00,,,0.00,WUHU216DAVISVP2,2013-09-19 10:35:00,
2013-09-19 06:40:00,62.0,60.5,30.19,SSW,205,0.0,0.0,95,0.00,,,0.00,WUHU216DAVISVP2,2013-09-19 10:40:00,
2013-09-19 06:45:00,62.0,60.5,30.19,SSW,205,0.0,0.0,95,0.00,,,0.00,WUHU216DAVISVP2,2013-09-19 10:45:00,
2013-09-19 06:50:00,62.1,60.9,30.19,SSW,205,0.0,0.0,96,0.00,,,0.00,WUHU216DAVISVP2,2013-09-19 10:50:00,
2013-09-19 06:56:00,62.1,60.9,30.19,SSW,205,0.0,0.0,96,0.00,,,0.00,WUHU216DAVISVP2,2013-09-19 10:56:00,
2013-09-19 07:01:00,62.1,60.9,30.19,SSW,205,0.0,0.0,96,0.00,,,0.00,WUHU216DAVISVP2,2013-09-19 11:01:00,
2013-09-19 07:06:00,62.1,60.9,30.19,SSW,205,0.0,0.0,96,0.00,,,0.00,WUHU216DAVISVP2,2013-09-19 11:06:00,
2013-09-19 07:11:00,62.1,60.9,30.20,SSW,205,0.0,0.0,96,0.00,,,0.00,WUHU216DAVISVP2,2013-09-19 11:11:00,
2013-09-19 07:16:00,62.1,60.9,30.20,SSW,205,0.0,0.0,96,0.00,,,0.00,WUHU216DAVISVP2,2013-09-19 11:16:00,
2013-09-19 07:21:00,62.0,60.5,30.20,SSW,205,0.0,0.0,95,0.00,,,0.00,WUHU216DAVISVP2,2013-09-19 11:21:00,
2013-09-19 07:26:00,61.9,60.7,30.20,SSW,205,0.0,0.0,96,0.00,,,0.00,WUHU216DAVISVP2,2013-09-19 11:26:00,
2013-09-19 07:32:00,62.0,60.8,30.20,SSW,205,0.0,0.0,96,0.00,,,0.00,WUHU216DAVISVP2,2013-09-19 11:32:00,
2013-09-19 07:37:00,62.1,60.9,30.20,SSW,205,0.0,0.0,96,0.00,,,0.00,WUHU216DAVISVP2,2013-09-19 11:37:00,
2013-09-19 07:42:00,62.2,61.0,30.20,SSW,205,0.0,0.0,96,0.00,,,0.00,WUHU216DAVISVP2,2013-09-19 11:42:00,
2013-09-19 07:47:00,62.2,61.0,30.20,SSW,205,0.0,0.0,96,0.00,,,0.00,WUHU216DAVISVP2,2013-09-19 11:47:00,
2013-09-19 07:52:00,62.2,61.0,30.21,SSW,205,0.0,0.0,96,0.00,,,0.00,WUHU216DAVISVP2,2013-09-19 11:52:00,
2013-09-19 07:57:00,62.3,61.1,30.21,SSW,205,0.0,0.0,96,0.00,,,0.00,WUHU216DAVISVP2,2013-09-19 11:57:00,
2013-09-19 08:02:00,62.3,61.1,30.21,SSW,205,0.0,0.0,96,0.00,,,0.00,WUHU216DAVISVP2,2013-09-19 12:02:00,
2013-09-19 08:07:00,62.5,61.3,30.21,SSW,205,0.0,0.0,96,0.00,,,0.00,WUHU216DAVISVP2,2013-09-19 12:07:00,
2013-09-19 08:13:00,62.7,61.5,30.21,SSW,205,0.0,0.0,96,0.00,,,0.00,WUHU216DAVISVP2,2013-09-19 12:13:00,
2013-09-19 08:18:00,62.8,61.6,30.21,SSW,205,0.0,0.0,96,0.00,,,0.00,WUHU216DAVISVP2,2013-09-19 12:18:00,
2013-09-19 08:23:00,63.0,61.8,30.21,SSW,205,0.0,0.0,96,0.00,,,0.00,WUHU216DAVISVP2,2013-09-19 12:23:00,
2013-09-19 08:28:00,63.3,62.1,30.22,SSW,205,0.0,0.0,96,0.00,,,0.00,WUHU216DAVISVP2,2013-09-19 12:28:00,
2013-09-19 08:34:00,63.5,62.3,30.22,SSW,205,0.0,0.0,96,0.00,,,0.00,WUHU216DAVISVP2,2013-09-19 12:34:00,
2013-09-19 08:39:00,63.9,62.7,30.22,SSW,205,0.0,0.0,96,0.00,,,0.00,WUHU216DAVISVP2,2013-09-19 12:39:00,
2013-09-19 08:44:00,64.2,63.0,30.22,SSW,205,0.0,0.0,96,0.00,,,0.00,WUHU216DAVISVP2,2013-09-19 12:44:00,
2013-09-19 08:50:00,64.5,63.0,30.22,SSW,205,0.0,0.0,95,0.00,,,0.00,WUHU216DAVISVP2,2013-09-19 12:50:00,
2013-09-19 08:55:00,64.8,63.3,30.22,SSW,205,0.0,0.0,95,0.00,,,0.00,WUHU216DAVISVP2,2013-09-19 12:55:00,
2013-09-19 09:00:00,65.2,63.7,30.22,SSW,205,0.0,0.0,95,0.00,,,0.00,WUHU216DAVISVP2,2013-09-19 13:00:00,
2013-09-19 09:05:00,65.6,64.1,30.22,SSW,205,0.0,0.0,95,0.00,,,0.00,WUHU216DAVISVP2,2013-09-19 13:05:00,
2013-09-19 09:10:00,66.1,64.3,30.22,SSW,205,0.0,0.0,94,0.00,,,0.00,WUHU216DAVISVP2,2013-09-19 13:10:00,
2013-09-19 09:15:00,66.5,64.4,30.22,SSW,205,0.0,0.0,93,0.00,,,0.00,WUHU216DAVISVP2,2013-09-19 13:15:00,
2013-09-19 09:20:00,67.0,64.6,30.22,SSW,205,0.0,0.0,92,0.00,,,0.00,WUHU216DAVISVP2,2013-09-19 13:20:00,
2013-09-19 09:25:00,67.5,65.1,30.22,SSW,205,0.0,0.0,92,0.00,,,0.00,WUHU216DAVISVP2,2013-09-19 13:25:00,
2013-09-19 09:31:00,67.9,64.5,30.22,SSW,209,0.0,0.0,89,0.00,,,0.00,WUHU216DAVISVP2,2013-09-19 13:31:00,
2013-09-19 09:36:00,68.4,65.3,30.22,SW,231,0.0,1.0,90,0.00,,,0.00,WUHU216DAVISVP2,2013-09-19 13:36:00,
2013-09-19 09:41:00,68.8,64.8,30.22,NW,309,0.0,1.0,87,0.00,,,0.00,WUHU216DAVISVP2,2013-09-19 13:41:00,
2013-09-19 09:46:00,69.0,64.3,30.22,SW,219,4.0,4.0,85,0.00,,,0.00,WUHU216DAVISVP2,2013-09-19 13:46:00,
2013-09-19 09:51:00,69.3,64.9,30.22,West,261,0.0,5.0,86,0.00,,,0.00,WUHU216DAVISVP2,2013-09-19 13:51:00,
2013-09-19 09:56:00,69.9,65.5,30.22,SW,226,1.0,5.0,86,0.00,,,0.00,WUHU216DAVISVP2,2013-09-19 13:56:00,
2013-09-19 10:01:00,70.4,65.7,30.22,West,260,1.0,5.0,85,0.00,,,0.00,WUHU216DAVISVP2,2013-09-19 14:01:00,
2013-09-19 10:07:00,71.1,65.7,30.23,SW,219,0.0,3.0,83,0.00,,,0.00,WUHU216DAVISVP2,2013-09-19 14:07:00,
2013-09-19 10:12:00,71.8,66.0,30.23,SW,219,1.0,3.0,82,0.00,,,0.00,WUHU216DAVISVP2,2013-09-19 14:12:00,
2013-09-19 10:17:00,72.3,65.9,30.22,SW,218,0.0,3.0,80,0.00,,,0.00,WUHU216DAVISVP2,2013-09-19 14:17:00,
2013-09-19 10:22:00,72.8,66.4,30.23,SSW,201,4.0,6.0,80,0.00,,,0.00,WUHU216DAVISVP2,2013-09-19 14:22:00,
2013-09-19 10:27:00,73.2,66.4,30.22,SW,229,1.0,6.0,79,0.00,,,0.00,WUHU216DAVISVP2,2013-09-19 14:27:00,
2013-09-19 10:32:00,73.6,66.4,30.22,WSW,240,0.0,6.0,78,0.00,,,0.00,WUHU216DAVISVP2,2013-09-19 14:32:00,
2013-09-19 10:37:00,74.1,66.6,30.22,WSW,239,1.0,6.0,77,0.00,,,0.00,WUHU216DAVISVP2,2013-09-19 14:37:00,
2013-09-19 10:42:00,74.6,66.7,30.22,WNW,294,0.0,5.0,76,0.00,,,0.00,WUHU216DAVISVP2,2013-09-19 14:42:00,
2013-09-19 10:48:00,74.6,66.3,30.22,WSW,255,0.0,3.0,75,0.00,,,0.00,WUHU216DAVISVP2,2013-09-19 14:48:00,
2013-09-19 10:53:00,75.0,65.4,30.22,SSW,202,3.0,5.0,72,0.00,,,0.00,WUHU216DAVISVP2,2013-09-19 14:53:00,
2013-09-19 10:58:00,75.5,67.2,30.22,SSW,209,5.0,8.0,75,0.00,,,0.00,WUHU216DAVISVP2,2013-09-19 14:58:00,
2013-09-19 11:03:00,75.7,65.8,30.22,SW,217,2.0,8.0,71,0.00,,,0.00,WUHU216DAVISVP2,2013-09-19 15:03:00,
2013-09-19 11:08:00,76.1,67.0,30.22,SW,222,2.0,8.0,73,0.00,,,0.00,WUHU216DAVISVP2,2013-09-19 15:08:00,
2013-09-19 11:13:00,76.3,67.2,30.22,SW,221,1.0,8.0,73,0.00,,,0.00,WUHU216DAVISVP2,2013-09-19 15:13:00,
2013-09-19 11:18:00,76.8,66.1,30.21,SSW,192,1.0,7.0,69,0.00,,,0.00,WUHU216DAVISVP2,2013-09-19 15:18:00,
2013-09-19 11:23:00,76.9,66.2,30.21,West,271,2.0,5.0,69,0.00,,,0.00,WUHU216DAVISVP2,2013-09-19 15:23:00,
2013-09-19 11:29:00,77.1,66.4,30.21,SW,231,5.0,5.0,69,0.00,,,0.00,WUHU216DAVISVP2,2013-09-19 15:29:00,
2013-09-19 11:34:00,77.5,66.7,30.21,SSW,197,0.0,6.0,69,0.00,,,0.00,WUHU216DAVISVP2,2013-09-19 15:34:00,
2013-09-19 11:39:00,77.6,66.2,30.21,WSW,255,2.0,6.0,68,0.00,,,0.00,WUHU216DAVISVP2,2013-09-19 15:39:00,
2013-09-19 11:44:00,77.9,66.5,30.21,SSW,198,1.0,6.0,68,0.00,,,0.00,WUHU216DAVISVP2,2013-09-19 15:44:00,
2013-09-19 11:49:00,78.0,66.4,30.21,SW,215,3.0,6.0,67,0.00,,,0.00,WUHU216DAVISVP2,2013-09-19 15:49:00,
2013-09-19 11:54:00,78.2,67.0,30.21,SW,236,0.0,7.0,68,0.00,,,0.00,WUHU216DAVISVP2,2013-09-19 15:54:00,
2013-09-19 11:59:00,78.4,66.8,30.21,WNW,284,2.0,7.0,67,0.00,,,0.00,WUHU216DAVISVP2,2013-09-19 15:59:00,
2013-09-19 12:04:00,78.4,66.8,30.21,South,180,1.0,7.0,67,0.00,,,0.00,WUHU216DAVISVP2,2013-09-19 16:04:00,
2013-09-19 12:10:00,78.2,67.0,30.21,SSE,156,0.0,7.0,68,0.00,,,0.00,WUHU216DAVISVP2,2013-09-19 16:10:00,
2013-09-19 12:15:00,78.5,66.9,30.20,WNW,286,2.0,5.0,67,0.00,,,0.00,WUHU216DAVISVP2,2013-09-19 16:15:00,
2013-09-19 12:20:00,78.7,67.1,30.20,SSW,213,1.0,5.0,67,0.00,,,0.00,WUHU216DAVISVP2,2013-09-19 16:20:00,
2013-09-19 12:25:00,79.0,67.5,30.20,SW,229,0.0,5.0,68,0.00,,,0.00,WUHU216DAVISVP2,2013-09-19 16:25:00,
2013-09-19 12:30:00,78.8,67.1,30.20,SW,228,0.0,5.0,67,0.00,,,0.00,WUHU216DAVISVP2,2013-09-19 16:30:00,
2013-09-19 12:35:00,78.3,66.9,30.20,SE,146,0.0,3.0,68,0.00,,,0.00,WUHU216DAVISVP2,2013-09-19 16:35:00,
2013-09-19 12:41:00,78.8,66.9,30.20,NW,319,2.0,4.0,67,0.00,,,0.00,WUHU216DAVISVP2,2013-09-19 16:41:00,
2013-09-19 12:46:00,79.3,67.0,30.20,SW,219,1.0,5.0,66,0.00,,,0.00,WUHU216DAVISVP2,2013-09-19 16:46:00,
2013-09-19 12:51:00,79.7,68.0,30.19,West,259,1.0,5.0,67,0.00,,,0.00,WUHU216DAVISVP2,2013-09-19 16:51:00,
2013-09-19 12:56:00,80.2,67.6,30.19,South,190,0.0,5.0,65,0.00,,,0.00,WUHU216DAVISVP2,2013-09-19 16:56:00,
2013-09-19 13:17:00,79.6,67.5,30.18,SW,228,2.0,5.0,66,0.00,,,0.00,WUHU216DAVISVP2,2013-09-19 17:17:00,
2013-09-19 13:27:00,80.2,68.9,30.18,SW,215,3.0,5.0,68,0.00,,,0.00,WUHU216DAVISVP2,2013-09-19 17:27:00,
2013-09-19 13:33:00,81.5,68.4,30.17,SW,224,2.0,7.0,64,0.00,,,0.00,WUHU216DAVISVP2,2013-09-19 17:33:00,
2013-09-19 13:38:00,81.5,67.9,30.17,SW,225,0.0,7.0,63,0.00,,,0.00,WUHU216DAVISVP2,2013-09-19 17:38:00,
2013-09-19 13:43:00,81.6,68.9,30.17,SW,223,1.0,7.0,65,0.00,,,0.00,WUHU216DAVISVP2,2013-09-19 17:43:00,
2013-09-19 13:49:00,81.7,67.7,30.17,SW,223,0.0,7.0,62,0.00,,,0.00,WUHU216DAVISVP2,2013-09-19 17:49:00,
2013-09-19 13:54:00,82.3,68.7,30.17,SW,223,1.0,4.0,63,0.00,,,0.00,WUHU216DAVISVP2,2013-09-19 17:54:00,
2013-09-19 13:59:00,82.6,68.7,30.17,SSW,200,0.0,5.0,63,0.00,,,0.00,WUHU216DAVISVP2,2013-09-19 17:59:00,
2013-09-19 14:04:00,83.0,68.9,30.16,West,264,0.0,5.0,62,0.00,,,0.00,WUHU216DAVISVP2,2013-09-19 18:04:00,
2013-09-19 14:10:00,83.0,67.9,30.16,SSW,196,3.0,5.0,60,0.00,,,0.00,WUHU216DAVISVP2,2013-09-19 18:10:00,
2013-09-19 14:15:00,83.0,67.7,30.15,SSW,192,2.0,4.0,60,0.00,,,0.00,WUHU216DAVISVP2,2013-09-19 18:15:00,
2013-09-19 14:20:00,82.7,69.5,30.15,South,189,1.0,4.0,64,0.00,,,0.00,WUHU216DAVISVP2,2013-09-19 18:20:00,
2013-09-19 14:25:00,82.3,68.2,30.15,SW,219,1.0,4.0,62,0.00,,,0.00,WUHU216DAVISVP2,2013-09-19 18:25:00,
2013-09-19 14:33:00,82.1,68.0,30.15,SW,219,1.0,4.0,62,0.00,,,0.00,WUHU216DAVISVP2,2013-09-19 18:33:00,
2013-09-19 14:38:00,82.3,67.8,30.15,SW,223,1.0,4.0,61,0.00,,,0.00,WUHU216DAVISVP2,2013-09-19 18:38:00,
2013-09-19 14:44:00,82.4,68.3,30.14,SSW,202,0.0,4.0,62,0.00,,,0.00,WUHU216DAVISVP2,2013-09-19 18:44:00,
2013-09-19 14:50:00,83.4,68.3,30.14,SSW,207,2.0,5.0,60,0.00,,,0.00,WUHU216DAVISVP2,2013-09-19 18:50:00,
2013-09-19 14:56:00,83.6,69.5,30.14,SSW,203,4.0,6.0,62,0.00,,,0.00,WUHU216DAVISVP2,2013-09-19 18:56:00,
2013-09-19 15:01:00,83.2,68.6,30.13,SSW,204,2.0,6.0,61,0.00,,,0.00,WUHU216DAVISVP2,2013-09-19 19:01:00,
2013-09-19 15:07:00,83.7,69.1,30.13,SSW,204,0.0,6.0,61,0.00,,,0.00,WUHU216DAVISVP2,2013-09-19 19:07:00,
2013-09-19 15:13:00,84.0,68.9,30.13,SSW,202,3.0,6.0,60,0.00,,,0.00,WUHU216DAVISVP2,2013-09-19 19:13:00,
2013-09-19 15:19:00,84.1,69.0,30.13,SSW,194,0.0,5.0,60,0.00,,,0.00,WUHU216DAVISVP2,2013-09-19 19:19:00,
2013-09-19 15:24:00,84.4,69.7,30.12,SSW,194,0.0,5.0,61,0.00,,,0.00,WUHU216DAVISVP2,2013-09-19 19:24:00,
2013-09-19 15:30:00,84.6,68.4,30.12,SW,214,2.0,5.0,58,0.00,,,0.00,WUHU216DAVISVP2,2013-09-19 19:30:00,
2013-09-19 15:35:00,84.3,67.9,30.12,SSW,213,0.0,3.0,58,0.00,,,0.00,WUHU216DAVISVP2,2013-09-19 19:35:00,
2013-09-19 15:40:00,84.3,68.4,30.12,SSW,205,0.0,3.0,59,0.00,,,0.00,WUHU216DAVISVP2,2013-09-19 19:40:00,
2013-09-19 15:45:00,84.1,69.0,30.12,SSW,205,0.0,3.0,60,0.00,,,0.00,WUHU216DAVISVP2,2013-09-19 19:45:00,
2013-09-19 15:51:00,84.1,69.0,30.12,SSW,205,0.0,3.0,60,0.00,,,0.00,WUHU216DAVISVP2,2013-09-19 19:51:00,
2013-09-19 15:56:00,84.4,68.3,30.11,South,172,0.0,3.0,58,0.00,,,0.00,WUHU216DAVISVP2,2013-09-19 19:56:00,
2013-09-19 16:01:00,84.8,68.9,30.11,South,173,1.0,3.0,59,0.00,,,0.00,WUHU216DAVISVP2,2013-09-19 20:01:00,
2013-09-19 16:06:00,85.1,68.9,30.11,South,173,1.0,3.0,58,0.00,,,0.00,WUHU216DAVISVP2,2013-09-19 20:06:00,
2013-09-19 16:11:00,85.0,69.6,30.11,South,172,0.0,3.0,60,0.00,,,0.00,WUHU216DAVISVP2,2013-09-19 20:11:00,
2013-09-19 16:16:00,85.1,69.2,30.11,South,172,0.0,2.0,59,0.00,,,0.00,WUHU216DAVISVP2,2013-09-19 20:16:00,
2013-09-19 16:21:00,85.2,70.0,30.11,South,172,1.0,2.0,60,0.00,,,0.00,WUHU216DAVISVP2,2013-09-19 20:21:00,
2013-09-19 16:27:00,85.3,70.1,30.11,South,178,0.0,3.0,60,0.00,,,0.00,WUHU216DAVISVP2,2013-09-19 20:27:00,
2013-09-19 16:33:00,85.4,70.2,30.10,SSW,197,2.0,5.0,60,0.00,,,0.00,WUHU216DAVISVP2,2013-09-19 20:33:00,
2013-09-19 16:39:00,85.4,70.7,30.10,SSW,197,1.0,5.0,61,0.00,,,0.00,WUHU216DAVISVP2,2013-09-19 20:39:00,
2013-09-19 16:44:00,85.5,69.3,30.10,SSW,197,0.0,5.0,58,0.00,,,0.00,WUHU216DAVISVP2,2013-09-19 20:44:00,
2013-09-19 16:50:00,85.2,69.0,30.10,SSW,198,0.0,5.0,58,0.00,,,0.00,WUHU216DAVISVP2,2013-09-19 20:50:00,
2013-09-19 16:56:00,85.3,69.6,30.10,SSW,197,0.0,4.0,59,0.00,,,0.00,WUHU216DAVISVP2,2013-09-19 20:56:00,
2013-09-19 17:02:00,85.4,71.2,30.10,SSW,197,0.0,4.0,62,0.00,,,0.00,WUHU216DAVISVP2,2013-09-19 21:02:00,
2013-09-19 17:08:00,85.0,71.3,30.10,SSW,197,0.0,4.0,63,0.00,,,0.00,WUHU216DAVISVP2,2013-09-19 21:08:00,
2013-09-19 17:14:00,83.9,70.7,30.10,SSW,196,1.0,4.0,64,0.00,,,0.00,WUHU216DAVISVP2,2013-09-19 21:14:00,
2013-09-19 17:19:00,83.8,68.4,30.10,SSW,197,2.0,4.0,60,0.00,,,0.00,WUHU216DAVISVP2,2013-09-19 21:19:00,
2013-09-19 17:25:00,83.6,69.9,30.10,SSW,197,0.0,3.0,63,0.00,,,0.00,WUHU216DAVISVP2,2013-09-19 21:25:00,
2013-09-19 17:31:00,83.6,70.1,30.10,SSW,196,0.0,3.0,64,0.00,,,0.00,WUHU216DAVISVP2,2013-09-19 21:31:00,
2013-09-19 17:37:00,83.2,68.8,30.10,SSW,197,0.0,3.0,62,0.00,,,0.00,WUHU216DAVISVP2,2013-09-19 21:37:00,
2013-09-19 17:43:00,82.9,69.3,30.10,SSW,196,0.0,4.0,63,0.00,,,0.00,WUHU216DAVISVP2,2013-09-19 21:43:00,
2013-09-19 17:49:00,82.6,69.4,30.10,SSW,197,1.0,4.0,64,0.00,,,0.00,WUHU216DAVISVP2,2013-09-19 21:49:00,
2013-09-19 17:54:00,82.4,69.4,30.10,SSW,197,0.0,4.0,65,0.00,,,0.00,WUHU216DAVISVP2,2013-09-19 21:54:00,
2013-09-19 18:00:00,81.8,69.6,30.10,SSW,196,0.0,2.0,66,0.00,,,0.00,WUHU216DAVISVP2,2013-09-19 22:00:00,
2013-09-19 18:06:00,81.5,67.9,30.10,SSW,196,0.0,2.0,63,0.00,,,0.00,WUHU216DAVISVP2,2013-09-19 22:06:00,
2013-09-19 18:12:00,81.3,68.7,30.09,SSW,197,0.0,2.0,65,0.00,,,0.00,WUHU216DAVISVP2,2013-09-19 22:12:00,
2013-09-19 18:18:00,81.0,70.5,30.09,SSW,196,0.0,2.0,70,0.00,,,0.00,WUHU216DAVISVP2,2013-09-19 22:18:00,
2013-09-19 18:24:00,80.8,70.3,30.09,SSW,197,0.0,3.0,70,0.00,,,0.00,WUHU216DAVISVP2,2013-09-19 22:24:00,
2013-09-19 18:30:00,80.6,70.3,30.09,SSW,197,0.0,3.0,71,0.00,,,0.00,WUHU216DAVISVP2,2013-09-19 22:30:00,
2013-09-19 18:36:00,80.2,70.6,30.09,SSW,196,0.0,3.0,72,0.00,,,0.00,WUHU216DAVISVP2,2013-09-19 22:36:00,
2013-09-19 18:41:00,79.8,70.6,30.09,SSW,197,0.0,0.0,73,0.00,,,0.00,WUHU216DAVISVP2,2013-09-19 22:41:00,
2013-09-19 18:47:00,79.2,70.2,30.09,SSW,197,0.0,0.0,74,0.00,,,0.00,WUHU216DAVISVP2,2013-09-19 22:47:00,
2013-09-19 18:53:00,78.6,70.2,30.08,SSW,197,0.0,0.0,75,0.00,,,0.00,WUHU216DAVISVP2,2013-09-19 22:53:00,
2013-09-19 18:59:00,78.2,70.5,30.08,SSW,197,0.0,1.0,77,0.00,,,0.00,WUHU216DAVISVP2,2013-09-19 22:59:00,
2013-09-19 19:05:00,77.7,70.4,30.08,SSW,197,0.0,1.0,78,0.00,,,0.00,WUHU216DAVISVP2,2013-09-19 23:05:00,
2013-09-19 19:11:00,77.1,70.2,30.07,SSW,197,0.0,1.0,79,0.00,,,0.00,WUHU216DAVISVP2,2013-09-19 23:11:00,
2013-09-19 19:18:00,76.8,70.6,30.07,SSW,197,0.0,0.0,81,0.00,,,0.00,WUHU216DAVISVP2,2013-09-19 23:18:00,
2013-09-19 19:23:00,76.4,70.6,30.07,SSW,197,0.0,0.0,82,0.00,,,0.00,WUHU216DAVISVP2,2013-09-19 23:23:00,
2013-09-19 19:28:00,76.0,70.1,30.07,SSW,197,0.0,0.0,82,0.00,,,0.00,WUHU216DAVISVP2,2013-09-19 23:28:00,
2013-09-19 19:33:00,75.5,70.0,30.07,SSW,197,0.0,1.0,83,0.00,,,0.00,WUHU216DAVISVP2,2013-09-19 23:33:00,
2013-09-19 19:39:00,74.9,69.4,30.07,SSW,197,0.0,1.0,83,0.00,,,0.00,WUHU216DAVISVP2,2013-09-19 23:39:00,
2013-09-19 19:44:00,74.5,69.0,30.07,SSW,197,0.0,1.0,83,0.00,,,0.00,WUHU216DAVISVP2,2013-09-19 23:44:00,
2013-09-19 19:49:00,74.0,68.9,30.07,SSW,196,0.0,1.0,84,0.00,,,0.00,WUHU216DAVISVP2,2013-09-19 23:49:00,
2013-09-19 19:54:00,73.6,68.5,30.07,SSW,196,0.0,1.0,84,0.00,,,0.00,WUHU216DAVISVP2,2013-09-19 23:54:00,
2013-09-19 19:59:00,73.3,68.2,30.07,SSW,197,0.0,1.0,84,0.00,,,0.00,WUHU216DAVISVP2,2013-09-19 23:59:00,
2013-09-19 20:05:00,73.0,68.3,30.07,SSW,197,0.0,1.0,85,0.00,,,0.00,WUHU216DAVISVP2,2013-09-20 00:05:00,
2013-09-19 20:10:00,72.7,68.0,30.07,SSW,197,0.0,1.0,85,0.00,,,0.00,WUHU216DAVISVP2,2013-09-20 00:10:00,
2013-09-19 20:15:00,72.4,67.7,30.07,SSW,197,0.0,1.0,85,0.00,,,0.00,WUHU216DAVISVP2,2013-09-20 00:15:00,
2013-09-19 20:20:00,72.1,67.7,30.07,SSW,197,0.0,1.0,86,0.00,,,0.00,WUHU216DAVISVP2,2013-09-20 00:20:00,
2013-09-19 20:25:00,71.8,67.4,30.07,SSW,197,0.0,1.0,86,0.00,,,0.00,WUHU216DAVISVP2,2013-09-20 00:25:00,
2013-09-19 20:31:00,71.5,67.1,30.08,SSW,197,0.0,1.0,86,0.00,,,0.00,WUHU216DAVISVP2,2013-09-20 00:31:00,
2013-09-19 20:37:00,71.2,67.1,30.08,SSW,197,0.0,1.0,87,0.00,,,0.00,WUHU216DAVISVP2,2013-09-20 00:37:00,
2013-09-19 20:43:00,71.3,66.9,30.08,SSW,196,0.0,0.0,86,0.00,,,0.00,WUHU216DAVISVP2,2013-09-20 00:43:00,
2013-09-19 20:49:00,71.4,67.0,30.08,SSW,197,0.0,0.0,86,0.00,,,0.00,WUHU216DAVISVP2,2013-09-20 00:49:00,
2013-09-19 20:55:00,71.3,66.9,30.08,SSW,197,0.0,0.0,86,0.00,,,0.00,WUHU216DAVISVP2,2013-09-20 00:55:00,
2013-09-19 21:02:00,71.2,67.1,30.08,SSW,197,0.0,0.0,87,0.00,,,0.00,WUHU216DAVISVP2,2013-09-20 01:02:00,
2013-09-19 21:08:00,70.8,66.7,30.09,SSW,197,0.0,1.0,87,0.00,,,0.00,WUHU216DAVISVP2,2013-09-20 01:08:00,
2013-09-19 21:14:00,70.4,66.7,30.09,SSW,197,0.0,1.0,88,0.00,,,0.00,WUHU216DAVISVP2,2013-09-20 01:14:00,
2013-09-19 21:20:00,70.2,66.5,30.09,SSW,197,0.0,1.0,88,0.00,,,0.00,WUHU216DAVISVP2,2013-09-20 01:20:00,
2013-09-19 21:26:00,70.0,66.6,30.09,SSW,196,0.0,0.0,89,0.00,,,0.00,WUHU216DAVISVP2,2013-09-20 01:26:00,
2013-09-19 21:32:00,69.9,66.5,30.09,SSW,197,0.0,0.0,89,0.00,,,0.00,WUHU216DAVISVP2,2013-09-20 01:32:00,
2013-09-19 21:38:00,69.7,66.6,30.09,SSW,197,0.0,0.0,90,0.00,,,0.00,WUHU216DAVISVP2,2013-09-20 01:38:00,
2013-09-19 21:44:00,69.4,66.3,30.09,SSW,197,0.0,0.0,90,0.00,,,0.00,WUHU216DAVISVP2,2013-09-20 01:44:00,
2013-09-19 21:50:00,69.2,66.5,30.09,SSW,197,0.0,0.0,91,0.00,,,0.00,WUHU216DAVISVP2,2013-09-20 01:50:00,
2013-09-19 21:56:00,69.1,66.3,30.09,SSW,197,0.0,0.0,91,0.00,,,0.00,WUHU216DAVISVP2,2013-09-20 01:56:00,
2013-09-19 22:02:00,68.9,66.1,30.10,SSW,197,0.0,0.0,91,0.00,,,0.00,WUHU216DAVISVP2,2013-09-20 02:02:00,
2013-09-19 22:08:00,68.8,66.0,30.10,SSW,197,0.0,0.0,91,0.00,,,0.00,WUHU216DAVISVP2,2013-09-20 02:08:00,
2013-09-19 22:14:00,68.7,66.0,30.10,SSW,197,0.0,0.0,91,0.00,,,0.00,WUHU216DAVISVP2,2013-09-20 02:14:00,
2013-09-19 22:20:00,68.6,66.2,30.10,SSW,197,0.0,0.0,92,0.00,,,0.00,WUHU216DAVISVP2,2013-09-20 02:20:00,
2013-09-19 22:26:00,68.5,66.1,30.10,SSW,197,0.0,0.0,92,0.00,,,0.00,WUHU216DAVISVP2,2013-09-20 02:26:00,
2013-09-19 22:31:00,68.4,66.0,30.09,SSW,197,0.0,0.0,92,0.00,,,0.00,WUHU216DAVISVP2,2013-09-20 02:31:00,
2013-09-19 22:37:00,68.3,65.9,30.09,SSW,197,0.0,0.0,92,0.00,,,0.00,WUHU216DAVISVP2,2013-09-20 02:37:00,
2013-09-19 22:43:00,68.2,65.8,30.09,SSW,197,0.0,0.0,92,0.00,,,0.00,WUHU216DAVISVP2,2013-09-20 02:43:00,
2013-09-19 22:49:00,68.1,65.7,30.10,SSW,197,0.0,0.0,92,0.00,,,0.00,WUHU216DAVISVP2,2013-09-20 02:49:00,
2013-09-19 22:56:00,68.1,66.0,30.10,SSW,197,0.0,0.0,93,0.00,,,0.00,WUHU216DAVISVP2,2013-09-20 02:56:00,
2013-09-19 23:02:00,68.0,65.6,30.10,SSW,197,0.0,0.0,92,0.00,,,0.00,WUHU216DAVISVP2,2013-09-20 03:02:00,
2013-09-19 23:08:00,67.9,65.5,30.09,SSW,197,0.0,0.0,92,0.00,,,0.00,WUHU216DAVISVP2,2013-09-20 03:08:00,
2013-09-19 23:23:00,68.4,66.0,30.09,SSW,197,0.0,0.0,92,0.00,,,0.00,WUHU216DAVISVP2,2013-09-20 03:23:00,
2013-09-19 23:28:00,68.7,66.3,30.09,SSW,197,0.0,0.0,92,0.00,,,0.00,WUHU216DAVISVP2,2013-09-20 03:28:00,
2013-09-19 23:38:00,68.7,66.3,30.10,SSW,197,0.0,0.0,92,0.00,,,0.00,WUHU216DAVISVP2,2013-09-20 03:38:00,
2013-09-19 23:47:00,68.7,65.9,30.10,SSW,197,0.0,0.0,91,0.00,,,0.00,WUHU216DAVISVP2,2013-09-20 03:47:00,
2013-09-19 23:58:00,68.5,66.1,30.10,SSW,197,0.0,0.0,92,0.00,,,0.00,WUHU216DAVISVP2,2013-09-20 03:58:00,